Susan Elizabeth — WDG4681 — position and weather

sailwx.info

Track history (hours):
 
Tides and Currents Weather Stations Pressure Air Temp Water Temp Dewpoint Dewpoint Depression Visibility Wind Speed Wind Dir Waves Ship Positions

Susan Elizabeth

Owner: Kirby Inland Marine, LP, Houston, TX. More information available from US FCC via Universal Licensing System and Coast Guard Vessel Documentation Center.

Last reported at 2017-Nov-07 07:27 UTC. Time now 2017-Nov-21 02:48 UTC.
Position N 29°38' W 090°21'.
Warning: this ship's position is 13 days out of date.

Length 23 m; draft 3 m.

Type: Other ship. MMSI: 367022350.

Date/timePositionNaut miles runAvg speedWind from/ knotsBaromVisibWave heightAir tempDewpointWater temp
2017-Nov-07 07:27N 29°38' W 090°21'5 3.8
2017-Nov-07 06:16N 29°34' W 090°23'1 3.2
2017-Nov-07 05:56N 29°33' W 090°24'1 1.2
2017-Nov-07 05:29N 29°33' W 090°25'0 0.3
2017-Nov-07 04:59N 29°33' W 090°25'1 1.5
2017-Nov-07 04:19N 29°33' W 090°26'2 5.7
2017-Nov-07 04:00N 29°33' W 090°28'3 5.8
2017-Nov-07 03:30N 29°34' W 090°31'3 5.4
2017-Nov-07 03:00N 29°34' W 090°34'3 5.1
2017-Nov-07 02:30N 29°35' W 090°37'3 5.4
2017-Nov-07 02:00N 29°36' W 090°40'2 4.4
2017-Nov-07 01:30N 29°37' W 090°42'2 4.3
2017-Nov-07 01:00N 29°34' W 090°43'2 4.9
2017-Nov-07 00:30N 29°33' W 090°45'3 5.5
2017-Nov-07 00:00N 29°32' W 090°48'123 4.4
2017-Nov-05 19:52N 29°56' W 093°07'2 5.0
2017-Nov-05 19:30N 29°56' W 093°09'2 4.4
2017-Nov-05 19:00N 29°57' W 093°11'2 4.8
2017-Nov-05 18:30N 29°59' W 093°13'2 4.4
2017-Nov-05 18:00N 30°01' W 093°14'2 3.2
2017-Nov-05 17:30N 30°02' W 093°15'2 4.3
2017-Nov-05 17:00N 30°04' W 093°16'2 4.3
2017-Nov-05 16:30N 30°06' W 093°18'0 0.9
2017-Nov-05 16:00N 30°06' W 093°18'0 0.0
2017-Nov-05 15:30N 30°06' W 093°18'0 0.0
2017-Nov-05 15:00N 30°06' W 093°18'0 0.0
2017-Nov-05 14:30N 30°06' W 093°18'0 0.0
2017-Nov-05 14:00N 30°06' W 093°18'0 0.0
2017-Nov-05 13:30N 30°06' W 093°18'0 0.0
2017-Nov-05 13:00N 30°06' W 093°18'0 0.0
2017-Nov-05 12:30N 30°06' W 093°18'0 0.5
2017-Nov-05 12:00N 30°06' W 093°19'1 2.8
2017-Nov-05 11:30N 30°05' W 093°20'1 2.5
2017-Nov-05 11:00N 30°04' W 093°21'1 2.7
2017-Nov-05 10:30N 30°04' W 093°22'1 3.0
2017-Nov-05 10:00N 30°04' W 093°24'2 4.8
2017-Nov-05 09:30N 30°04' W 093°27'3 5.4
2017-Nov-05 09:00N 30°04' W 093°30'3 5.6
2017-Nov-05 08:30N 30°04' W 093°33'4 5.8
2017-Nov-05 07:51N 30°03' W 093°37'2 5.1
2017-Nov-05 07:25N 30°04' W 093°40'  
Track history (hours):
 
Tides and Currents Weather Stations Pressure Air Temp Water Temp Dewpoint Dewpoint Depression Visibility Wind Speed Wind Dir Waves Ship Positions

Susan Elizabeth

Owner: Kirby Inland Marine, LP, Houston, TX. More information available from US FCC via Universal Licensing System and Coast Guard Vessel Documentation Center.

Last reported at 2017-Nov-07 07:27 UTC. Time now 2017-Nov-21 02:48 UTC.
Position N 29°38' W 090°21'.
Warning: this ship's position is 13 days out of date.

Length 23 m; draft 3 m.

Type: Other ship. MMSI: 367022350.

Date/timePositionNaut miles runAvg speedWind from/ knotsBaromVisibWave heightAir tempDewpointWater temp
2017-Nov-07 07:27N 29°38' W 090°21'5 3.8
2017-Nov-07 06:16N 29°34' W 090°23'1 3.2
2017-Nov-07 05:56N 29°33' W 090°24'1 1.2
2017-Nov-07 05:29N 29°33' W 090°25'0 0.3
2017-Nov-07 04:59N 29°33' W 090°25'1 1.5
2017-Nov-07 04:19N 29°33' W 090°26'2 5.7
2017-Nov-07 04:00N 29°33' W 090°28'3 5.8
2017-Nov-07 03:30N 29°34' W 090°31'3 5.4
2017-Nov-07 03:00N 29°34' W 090°34'3 5.1
2017-Nov-07 02:30N 29°35' W 090°37'3 5.4
2017-Nov-07 02:00N 29°36' W 090°40'2 4.4
2017-Nov-07 01:30N 29°37' W 090°42'2 4.3
2017-Nov-07 01:00N 29°34' W 090°43'2 4.9
2017-Nov-07 00:30N 29°33' W 090°45'3 5.5
2017-Nov-07 00:00N 29°32' W 090°48'123 4.4
2017-Nov-05 19:52N 29°56' W 093°07'2 5.0
2017-Nov-05 19:30N 29°56' W 093°09'2 4.4
2017-Nov-05 19:00N 29°57' W 093°11'2 4.8
2017-Nov-05 18:30N 29°59' W 093°13'2 4.4
2017-Nov-05 18:00N 30°01' W 093°14'2 3.2
2017-Nov-05 17:30N 30°02' W 093°15'2 4.3
2017-Nov-05 17:00N 30°04' W 093°16'2 4.3
2017-Nov-05 16:30N 30°06' W 093°18'0 0.9
2017-Nov-05 16:00N 30°06' W 093°18'0 0.0
2017-Nov-05 15:30N 30°06' W 093°18'0 0.0
2017-Nov-05 15:00N 30°06' W 093°18'0 0.0
2017-Nov-05 14:30N 30°06' W 093°18'0 0.0
2017-Nov-05 14:00N 30°06' W 093°18'0 0.0
2017-Nov-05 13:30N 30°06' W 093°18'0 0.0
2017-Nov-05 13:00N 30°06' W 093°18'0 0.0
2017-Nov-05 12:30N 30°06' W 093°18'0 0.5
2017-Nov-05 12:00N 30°06' W 093°19'1 2.8
2017-Nov-05 11:30N 30°05' W 093°20'1 2.5
2017-Nov-05 11:00N 30°04' W 093°21'1 2.7
2017-Nov-05 10:30N 30°04' W 093°22'1 3.0
2017-Nov-05 10:00N 30°04' W 093°24'2 4.8
2017-Nov-05 09:30N 30°04' W 093°27'3 5.4
2017-Nov-05 09:00N 30°04' W 093°30'3 5.6
2017-Nov-05 08:30N 30°04' W 093°33'4 5.8
2017-Nov-05 07:51N 30°03' W 093°37'2 5.1
2017-Nov-05 07:25N 30°04' W 093°40'  

Dump ship's entire track history